Time;durP1;ratioP1;P1;durP2;ratioP2;P2;SDS_P1;SDS_P2;PMS_P1;PMS_P2;Temp;Humidity;BMP_temperature;BMP_pressure;BME280_temperature;BME280_humidity;BME280_pressure;Samples;Min_cycle;Max_cycle;Signal;HPM_P1;HPM_P2
2023/03/26 00:00:58;;;;;;;1.30;0.85;;;;;;;10.64;nan;99831.03;5008729;28;20065;-53
2023/03/26 00:03:23;;;;;;;2.17;1.08;;;;;;;10.63;nan;99830.22;5005527;28;20049;-53
2023/03/26 00:06:02;;;;;;;3.88;1.20;;;;;;;10.68;nan;99827.22;5004666;28;20222;-53
2023/03/26 00:08:27;;;;;;;1.70;0.90;;;;;;;10.70;nan;99832.38;5006532;28;20032;-52
2023/03/26 00:10:52;;;;;;;3.47;1.38;;;;;;;10.70;nan;99829.75;5008014;28;20030;-53
2023/03/26 00:13:18;;;;;;;3.00;1.20;;;;;;;10.73;nan;99826.91;5019972;28;20029;-52
2023/03/26 00:15:43;;;;;;;3.75;1.40;;;;;;;10.73;nan;99835.66;5002951;28;20025;-54
2023/03/26 00:18:09;;;;;;;2.15;1.00;;;;;;;10.75;nan;99848.69;5010782;28;20484;-54
2023/03/26 00:20:34;;;;;;;2.63;0.90;;;;;;;10.73;nan;99824.25;5009126;28;20032;-55
2023/03/26 00:23:03;;;;;;;3.20;1.10;;;;;;;10.72;nan;99833.09;5014390;28;20034;-54
2023/03/26 00:25:30;;;;;;;3.30;1.08;;;;;;;10.71;nan;99831.44;5003725;28;20036;-53
2023/03/26 00:27:57;;;;;;;4.07;1.90;;;;;;;10.71;nan;99837.53;5010877;28;20030;-55
2023/03/26 00:30:22;;;;;;;4.05;1.20;;;;;;;10.67;nan;99836.91;5005013;28;20022;-52
2023/03/26 00:32:48;;;;;;;1.67;0.88;;;;;;;10.65;nan;99832.72;5010039;28;20124;-53
2023/03/26 00:35:13;;;;;;;2.70;1.05;;;;;;;10.65;nan;99832.72;5009041;28;20027;-54
2023/03/26 00:37:41;;;;;;;2.42;1.13;;;;;;;10.62;nan;99831.16;5010331;28;20030;-53
2023/03/26 00:40:09;;;;;;;2.03;1.17;;;;;;;10.67;nan;99829.00;5003797;28;20169;-55
2023/03/26 00:42:38;;;;;;;2.72;1.58;;;;;;;10.68;nan;99833.31;5003403;28;20030;-53
2023/03/26 00:45:06;;;;;;;3.40;1.45;;;;;;;10.68;nan;99837.75;5004202;28;20433;-55
2023/03/26 00:47:32;;;;;;;4.18;1.42;;;;;;;10.67;nan;99826.38;5005173;28;20045;-53
2023/03/26 00:49:58;;;;;;;3.13;0.93;;;;;;;10.66;nan;99831.75;5009498;28;20452;-55
2023/03/26 00:52:27;;;;;;;1.67;0.80;;;;;;;10.63;nan;99843.38;5009605;28;20037;-58
2023/03/26 00:54:53;;;;;;;1.23;0.90;;;;;;;10.67;nan;99833.44;5014266;28;20037;-53
2023/03/26 00:57:20;;;;;;;3.08;0.93;;;;;;;10.67;nan;99833.44;5002178;28;20087;-54
2023/03/26 00:59:47;;;;;;;4.20;1.02;;;;;;;10.67;nan;99831.63;4999186;28;20500;-54
2023/03/26 01:02:15;;;;;;;2.28;1.02;;;;;;;10.66;nan;99835.22;5006489;28;20034;-53
2023/03/26 01:04:46;;;;;;;4.15;1.05;;;;;;;10.64;nan;99837.16;4998783;28;20021;-54
2023/03/26 01:07:21;;;;;;;4.78;1.30;;;;;;;10.68;nan;99828.06;5002678;28;20554;-54
2023/03/26 01:09:49;;;;;;;3.33;0.80;;;;;;;10.68;nan;99848.28;5003437;28;20112;-57
2023/03/26 01:12:19;;;;;;;3.55;1.08;;;;;;;10.61;nan;99834.72;5005609;28;20675;-53
2023/03/26 01:14:50;;;;;;;4.00;1.02;;;;;;;10.61;nan;99842.63;5008763;28;20030;-55
2023/03/26 01:17:16;;;;;;;5.30;1.05;;;;;;;10.61;nan;99842.63;5014948;28;20021;-53
2023/03/26 01:19:53;;;;;;;1.58;1.10;;;;;;;10.61;nan;99842.63;5008828;28;20069;-54
2023/03/26 01:22:23;;;;;;;2.63;0.77;;;;;;;10.61;nan;99847.88;5008130;28;20026;-53
2023/03/26 01:24:52;;;;;;;1.88;0.90;;;;;;;10.60;nan;99845.34;5003148;28;20026;-54
2023/03/26 01:27:32;;;;;;;2.72;1.02;;;;;;;10.55;nan;99843.06;5004803;28;20046;-61
2023/03/26 01:30:09;;;;;;;4.35;0.95;;;;;;;10.56;nan;99865.78;4999017;28;20076;-53
2023/03/26 01:32:59;;;;;;;2.53;0.77;;;;;;;10.55;nan;99856.22;5001637;28;20030;-53
2023/03/26 01:35:57;;;;;;;2.75;0.63;;;;;;;10.58;nan;99868.31;5005729;28;20116;-53
2023/03/26 01:38:46;;;;;;;4.00;1.20;;;;;;;10.61;nan;99858.41;4966224;28;20528;-54
2023/03/26 01:41:19;;;;;;;1.75;0.90;;;;;;;10.55;nan;99858.84;5006727;28;20021;-55
2023/03/26 01:43:49;;;;;;;1.75;0.75;;;;;;;10.53;nan;99863.38;5012628;28;20120;-53
2023/03/26 01:46:16;;;;;;;0.95;0.60;;;;;;;10.49;nan;99867.19;5003712;28;20041;-52
2023/03/26 01:48:44;;;;;;;3.33;1.15;;;;;;;10.47;nan;99855.94;5006434;28;20087;-53
2023/03/26 01:51:11;;;;;;;4.50;0.93;;;;;;;10.47;nan;99871.72;5012938;28;20052;-55
2023/03/26 01:53:45;;;;;;;2.38;0.80;;;;;;;10.46;nan;99860.34;5014665;28;20384;-53
2023/03/26 01:56:22;;;;;;;2.42;0.73;;;;;;;10.47;nan;99856.75;5012365;28;20033;-53
2023/03/26 01:59:10;;;;;;;2.28;0.88;;;;;;;10.45;nan;99855.19;5006948;28;20041;-53
2023/03/26 02:02:00;;;;;;;2.47;1.00;;;;;;;10.39;nan;99851.22;4992419;28;20041;-54
2023/03/26 02:05:03;;;;;;;6.15;1.00;;;;;;;10.37;nan;99851.28;5008732;28;20029;-53
2023/03/26 02:07:36;;;;;;;2.15;1.10;;;;;;;10.37;nan;99867.06;5008131;28;20099;-54
2023/03/26 02:10:29;;;;;;;3.47;0.70;;;;;;;10.39;nan;99860.88;5007794;28;20435;-53
2023/03/26 02:12:56;;;;;;;2.67;0.93;;;;;;;10.39;nan;99874.03;5003689;28;20054;-55
2023/03/26 02:15:22;;;;;;;5.15;0.98;;;;;;;10.40;nan;99860.78;5002926;28;20034;-53
2023/03/26 02:17:48;;;;;;;2.97;0.98;;;;;;;10.33;nan;99870.03;5001736;28;20715;-53
2023/03/26 02:20:17;;;;;;;3.15;0.93;;;;;;;10.29;nan;99863.28;5014216;28;20033;-53
2023/03/26 02:22:44;;;;;;;3.50;0.93;;;;;;;10.26;nan;99874.03;5013825;28;20033;-53
2023/03/26 02:25:20;;;;;;;3.20;1.15;;;;;;;10.27;nan;99860.78;5003159;28;20045;-55
2023/03/26 02:27:46;;;;;;;2.50;0.93;;;;;;;10.26;nan;99863.53;4999690;28;20037;-55
2023/03/26 02:30:16;;;;;;;3.67;1.27;;;;;;;10.24;nan;99879.41;5003353;28;20090;-54
2023/03/26 02:32:42;;;;;;;4.05;0.88;;;;;;;10.22;nan;99873.41;5004895;28;20384;-54
2023/03/26 02:35:08;;;;;;;3.72;0.80;;;;;;;10.21;nan;99887.50;5007193;28;20110;-52
2023/03/26 02:37:34;;;;;;;3.78;0.88;;;;;;;10.22;nan;99876.88;5007627;28;20022;-54
2023/03/26 02:39:59;;;;;;;4.95;0.90;;;;;;;10.25;nan;99872.38;5008154;28;20037;-52
2023/03/26 02:42:25;;;;;;;2.35;0.80;;;;;;;10.21;nan;99892.75;5010360;28;20022;-52
2023/03/26 02:44:51;;;;;;;1.83;0.60;;;;;;;10.16;nan;99889.63;5007216;28;20089;-54
2023/03/26 02:47:16;;;;;;;3.92;0.63;;;;;;;10.12;nan;99877.63;4999520;28;20038;-52
2023/03/26 02:49:43;;;;;;;1.20;0.70;;;;;;;10.15;nan;99890.56;5008181;28;20025;-54
2023/03/26 02:52:08;;;;;;;1.63;0.60;;;;;;;10.11;nan;99892.56;5001405;28;20034;-53
2023/03/26 02:54:34;;;;;;;2.28;0.50;;;;;;;10.08;nan;99887.53;5008027;28;20083;-53
2023/03/26 02:57:00;;;;;;;2.05;0.70;;;;;;;10.10;nan;99884.78;5004398;28;20374;-53
2023/03/26 02:59:26;;;;;;;1.83;0.60;;;;;;;10.12;nan;99896.03;5011113;28;20544;-53
2023/03/26 03:01:51;;;;;;;1.45;1.15;;;;;;;10.11;nan;99887.31;5014166;28;20037;-55
2023/03/26 03:04:17;;;;;;;1.27;0.70;;;;;;;10.14;nan;99904.66;5005852;28;20034;-53
2023/03/26 03:06:45;;;;;;;2.85;0.75;;;;;;;10.07;nan;99889.28;5007899;28;20133;-52
2023/03/26 03:09:11;;;;;;;3.00;0.95;;;;;;;10.03;nan;99903.63;5002888;28;20036;-52
2023/03/26 03:11:39;;;;;;;1.98;1.25;;;;;;;10.06;nan;99899.94;5001927;28;20751;-52
2023/03/26 03:14:05;;;;;;;6.30;1.30;;;;;;;10.04;nan;99894.78;5008246;28;20025;-53
2023/03/26 03:16:32;;;;;;;4.40;1.20;;;;;;;10.03;nan;99906.25;5009456;28;20476;-52
2023/03/26 03:18:57;;;;;;;3.20;0.95;;;;;;;10.00;nan;99916.97;5011661;28;20045;-53
2023/03/26 03:21:24;;;;;;;3.80;1.02;;;;;;;10.00;nan;99911.72;5005687;28;20030;-52
2023/03/26 03:23:50;;;;;;;2.83;0.70;;;;;;;9.94;nan;99908.66;5004920;28;20042;-53
2023/03/26 03:26:20;;;;;;;2.58;0.90;;;;;;;9.92;nan;99903.50;5002957;28;20086;-53
2023/03/26 03:28:47;;;;;;;3.60;0.90;;;;;;;9.87;nan;99916.13;4998188;28;20452;-53
2023/03/26 03:31:12;;;;;;;6.35;1.20;;;;;;;9.83;nan;99925.16;5004949;28;20026;-54
2023/03/26 03:33:38;;;;;;;1.88;0.85;;;;;;;9.79;nan;99913.16;5005440;28;20033;-54
2023/03/26 03:36:09;;;;;;;2.67;0.70;;;;;;;9.76;nan;99927.34;5010342;28;20030;-53
2023/03/26 03:38:38;;;;;;;3.45;0.85;;;;;;;9.73;nan;99931.03;5002847;28;20022;-54
2023/03/26 03:41:03;;;;;;;2.95;0.80;;;;;;;9.69;nan;99931.31;5008239;28;20033;-53
2023/03/26 03:43:29;;;;;;;3.03;0.98;;;;;;;9.61;nan;99942.34;5012954;28;20376;-54
2023/03/26 03:45:54;;;;;;;9.73;1.27;;;;;;;9.59;nan;99929.31;5000915;28;20149;-55
2023/03/26 03:48:20;;;;;;;3.88;1.00;;;;;;;9.57;nan;99943.50;5009844;28;20048;-53
2023/03/26 03:50:45;;;;;;;3.13;1.40;;;;;;;9.54;nan;99939.28;5011383;28;20029;-52
2023/03/26 03:53:14;;;;;;;2.67;1.10;;;;;;;9.54;nan;99941.09;5008707;28;20047;-54
2023/03/26 03:55:51;;;;;;;5.97;1.30;;;;;;;9.55;nan;99940.16;4999720;28;20121;-53
2023/03/26 03:58:27;;;;;;;3.80;1.13;;;;;;;9.59;nan;99949.50;5005933;28;20514;-52
2023/03/26 04:01:03;;;;;;;2.40;1.00;;;;;;;9.59;nan;99952.97;5001092;28;20061;-56
2023/03/26 04:03:29;;;;;;;1.73;0.80;;;;;;;9.61;nan;99958.09;5003876;28;20057;-53
2023/03/26 04:05:54;;;;;;;3.03;1.10;;;;;;;9.67;nan;99970.00;5002279;28;20030;-53
2023/03/26 04:08:21;;;;;;;3.83;1.23;;;;;;;9.68;nan;99964.66;5011888;28;20049;-52
2023/03/26 04:10:47;;;;;;;4.20;1.10;;;;;;;9.72;nan;99955.63;5012428;28;20033;-53
2023/03/26 04:13:14;;;;;;;2.58;1.20;;;;;;;9.77;nan;99969.28;5011810;28;20468;-53
2023/03/26 04:15:41;;;;;;;3.60;0.55;;;;;;;9.82;nan;99960.25;5004573;28;20056;-52
2023/03/26 04:18:09;;;;;;;1.92;0.88;;;;;;;9.82;nan;99965.50;5003772;28;20026;-54
2023/03/26 04:20:46;;;;;;;3.95;0.98;;;;;;;9.83;nan;99975.06;5002319;28;20076;-53
2023/03/26 04:23:13;;;;;;;1.20;0.57;;;;;;;9.85;nan;99970.56;5007006;28;20056;-53
2023/03/26 04:25:42;;;;;;;3.33;0.95;;;;;;;9.87;nan;99960.78;5003088;28;20045;-55
2023/03/26 04:28:10;;;;;;;4.72;0.70;;;;;;;9.85;nan;99966.13;5004558;28;20089;-52
2023/03/26 04:30:37;;;;;;;2.83;0.85;;;;;;;9.84;nan;99959.19;5003911;28;20113;-53
2023/03/26 04:33:05;;;;;;;2.17;0.95;;;;;;;9.85;nan;99967.94;5010136;28;20026;-55
2023/03/26 04:35:33;;;;;;;4.55;1.13;;;;;;;9.84;nan;99963.63;4999025;28;20026;-53
2023/03/26 04:38:00;;;;;;;4.63;1.27;;;;;;;9.84;nan;99964.44;5002103;28;20038;-52
2023/03/26 04:40:29;;;;;;;7.00;1.13;;;;;;;9.88;nan;99965.09;5008136;28;20050;-55
2023/03/26 04:42:57;;;;;;;4.10;0.98;;;;;;;9.89;nan;99967.63;5011214;28;20571;-54
2023/03/26 04:45:23;;;;;;;4.95;0.90;;;;;;;9.88;nan;99965.09;5013971;28;20037;-52
2023/03/26 04:47:49;;;;;;;2.85;1.00;;;;;;;9.91;nan;99972.75;5007896;28;20046;-54
2023/03/26 04:50:15;;;;;;;2.17;0.77;;;;;;;9.95;nan;99969.00;5009515;28;20035;-53
2023/03/26 04:52:40;;;;;;;2.72;0.70;;;;;;;9.98;nan;99966.16;5016760;28;20105;-53
2023/03/26 04:55:18;;;;;;;2.25;1.15;;;;;;;10.04;nan;99971.00;5013192;28;20026;-53
2023/03/26 04:57:49;;;;;;;2.30;0.77;;;;;;;10.04;nan;99965.75;5007057;28;20064;-56
2023/03/26 05:00:18;;;;;;;5.43;2.33;;;;;;;10.06;nan;99969.09;5014814;28;20088;-53
2023/03/26 05:02:44;;;;;;;6.85;0.93;;;;;;;10.07;nan;99967.31;5009074;28;20109;-54
2023/03/26 05:05:10;;;;;;;2.47;0.82;;;;;;;10.13;nan;99968.69;5010690;28;20119;-52
2023/03/26 05:07:36;;;;;;;3.63;1.13;;;;;;;10.16;nan;99963.22;5006346;28;20061;-53
2023/03/26 05:10:05;;;;;;;2.70;1.30;;;;;;;10.18;nan;99971.84;5015742;28;20049;-54
2023/03/26 05:12:30;;;;;;;5.07;1.13;;;;;;;10.20;nan;99975.22;5003931;28;20037;-58
2023/03/26 05:14:56;;;;;;;4.28;1.17;;;;;;;10.22;nan;99976.78;5006354;28;20099;-53
2023/03/26 05:17:23;;;;;;;5.70;1.30;;;;;;;10.25;nan;99975.72;5008415;28;20022;-55
2023/03/26 05:19:50;;;;;;;3.40;1.38;;;;;;;10.30;nan;99975.41;5008050;28;20084;-56
2023/03/26 05:22:16;;;;;;;6.35;1.35;;;;;;;10.27;nan;99971.22;5014089;28;20057;-54
2023/03/26 05:24:42;;;;;;;3.67;1.00;;;;;;;10.29;nan;99971.09;5007893;28;20038;-52
2023/03/26 05:27:12;;;;;;;4.13;1.27;;;;;;;10.30;nan;99978.91;5006234;28;20038;-54
2023/03/26 05:29:37;;;;;;;5.97;1.58;;;;;;;10.35;nan;99976.81;5004661;28;20023;-53
2023/03/26 05:32:03;;;;;;;6.47;1.20;;;;;;;10.34;nan;99974.25;5002671;28;20026;-53
2023/03/26 05:34:28;;;;;;;7.97;2.13;;;;;;;10.35;nan;99974.16;5007569;28;20022;-52
2023/03/26 05:36:54;;;;;;;3.15;1.10;;;;;;;10.41;nan;99972.94;5008252;28;20026;-53
2023/03/26 05:39:24;;;;;;;4.65;1.42;;;;;;;10.40;nan;99970.38;5011220;28;20380;-55
2023/03/26 05:41:50;;;;;;;5.63;1.20;;;;;;;10.35;nan;99984.69;5006256;28;20391;-53
2023/03/26 05:44:15;;;;;;;6.80;1.17;;;;;;;10.36;nan;99970.56;5005752;28;20483;-53
2023/03/26 05:46:40;;;;;;;6.70;1.45;;;;;;;10.40;nan;99970.38;5003648;28;20038;-53
2023/03/26 05:49:06;;;;;;;4.00;0.93;;;;;;;10.46;nan;99967.34;5013855;28;20037;-54
2023/03/26 05:51:31;;;;;;;4.30;1.00;;;;;;;10.51;nan;99971.34;5016400;28;20030;-53
2023/03/26 05:53:57;;;;;;;6.75;1.40;;;;;;;10.54;nan;99975.53;5008294;28;20034;-55
2023/03/26 05:56:22;;;;;;;2.95;1.20;;;;;;;10.58;nan;99969.13;5003268;28;20493;-53
2023/03/26 05:58:48;;;;;;;3.88;1.10;;;;;;;10.59;nan;99981.31;5007151;28;20038;-51
2023/03/26 06:01:17;;;;;;;2.45;1.45;;;;;;;10.55;nan;99990.38;5004486;28;20101;-53
2023/03/26 06:03:44;;;;;;;3.38;0.95;;;;;;;10.53;nan;99981.75;4997656;28;20065;-53
2023/03/26 06:06:14;;;;;;;3.05;1.60;;;;;;;10.58;nan;99978.81;5011136;28;20141;-53
2023/03/26 06:08:47;;;;;;;4.97;1.42;;;;;;;10.57;nan;99983.22;5010373;28;20041;-54
2023/03/26 06:11:14;;;;;;;3.88;1.48;;;;;;;10.65;nan;99986.16;5007618;28;20017;-52
2023/03/26 06:13:40;;;;;;;2.63;1.17;;;;;;;10.64;nan;99989.75;5009094;28;20160;-54
2023/03/26 06:16:06;;;;;;;5.15;1.25;;;;;;;10.63;nan;99988.06;5002920;28;20105;-52
2023/03/26 06:18:31;;;;;;;1.92;0.90;;;;;;;10.65;nan;99988.78;5007034;28;20030;-52
2023/03/26 06:20:57;;;;;;;4.72;2.25;;;;;;;10.64;nan;99989.75;5008845;28;20042;-54
2023/03/26 06:23:23;;;;;;;3.35;1.10;;;;;;;10.73;nan;100001.41;5005574;28;20057;-53
2023/03/26 06:25:48;;;;;;;2.55;0.93;;;;;;;10.71;nan;99995.41;5003352;28;20107;-53
2023/03/26 06:28:14;;;;;;;2.15;0.80;;;;;;;10.77;nan;100000.22;5005893;28;20025;-53
2023/03/26 06:30:40;;;;;;;3.28;0.90;;;;;;;10.87;nan;100002.22;5002399;28;20044;-54
2023/03/26 06:33:06;;;;;;;2.47;0.90;;;;;;;10.85;nan;100009.38;5010737;28;20077;-52
2023/03/26 06:35:32;;;;;;;3.65;1.02;;;;;;;10.81;nan;100008.78;5002961;28;20025;-52
2023/03/26 06:37:58;;;;;;;2.08;0.90;;;;;;;10.81;nan;100006.97;5005519;28;20048;-53
2023/03/26 06:40:24;;;;;;;6.28;0.90;;;;;;;10.89;nan;100000.34;5000596;28;20080;-54
2023/03/26 06:42:50;;;;;;;3.55;0.60;;;;;;;10.86;nan;100011.06;5000772;28;20511;-53
2023/03/26 06:45:16;;;;;;;3.55;1.27;;;;;;;10.87;nan;100015.38;5000545;28;20056;-53
2023/03/26 06:47:41;;;;;;;3.13;0.90;;;;;;;10.85;nan;100002.31;5003687;28;20029;-53
2023/03/26 06:50:08;;;;;;;8.07;0.90;;;;;;;10.83;nan;100006.84;5003928;28;20045;-53
2023/03/26 06:52:34;;;;;;;3.97;0.93;;;;;;;10.83;nan;100020.00;5011206;28;20052;-52
2023/03/26 06:54:59;;;;;;;2.67;0.95;;;;;;;10.79;nan;100011.50;5007294;28;20061;-51
2023/03/26 06:57:25;;;;;;;3.75;0.98;;;;;;;10.76;nan;100009.06;5008953;28;20508;-52
2023/03/26 06:59:50;;;;;;;3.70;0.80;;;;;;;10.76;nan;100021.41;5009310;28;20030;-53
2023/03/26 07:02:16;;;;;;;3.17;0.60;;;;;;;10.75;nan;100014.44;5006773;28;20034;-54
2023/03/26 07:04:41;;;;;;;5.75;0.90;;;;;;;10.79;nan;100008.84;4989398;28;20049;-54
2023/03/26 07:07:07;;;;;;;1.30;0.80;;;;;;;10.82;nan;100020.94;5001965;28;20030;-54
2023/03/26 07:09:32;;;;;;;2.30;0.73;;;;;;;10.86;nan;100016.34;5005099;28;20040;-52
2023/03/26 07:11:58;;;;;;;3.35;0.90;;;;;;;10.83;nan;100018.22;5006943;28;20578;-53
2023/03/26 07:14:24;;;;;;;11.43;5.03;;;;;;;10.74;nan;100021.50;4994826;28;20106;-52
2023/03/26 07:16:53;;;;;;;0.75;0.40;;;;;;;10.66;nan;100029.09;5003285;28;20520;-51
2023/03/26 07:19:18;;;;;;;1.77;0.82;;;;;;;10.52;nan;100040.56;4993986;28;20448;-52
2023/03/26 07:21:45;;;;;;;4.07;1.15;;;;;;;10.50;nan;100029.31;5001159;28;20494;-53
2023/03/26 07:24:12;;;;;;;1.85;0.55;;;;;;;10.51;nan;100052.06;5005227;28;20429;-52
2023/03/26 07:26:56;;;;;;;4.75;0.90;;;;;;;10.41;nan;100025.53;4999166;28;20048;-55
2023/03/26 07:29:42;;;;;;;2.22;1.00;;;;;;;10.44;nan;100024.47;4995849;28;20045;-49
2023/03/26 07:32:20;;;;;;;1.70;0.90;;;;;;;10.52;nan;100022.13;5002457;28;20033;-50
2023/03/26 07:35:08;;;;;;;1.55;0.70;;;;;;;10.53;nan;100034.34;5006195;28;20121;-50
2023/03/26 07:38:00;;;;;;;5.25;1.00;;;;;;;10.57;nan;100027.09;4994038;28;20037;-54
2023/03/26 07:40:59;;;;;;;2.78;0.80;;;;;;;10.58;nan;100027.00;4992658;28;20041;-53
2023/03/26 07:43:50;;;;;;;0.70;0.50;;;;;;;10.60;nan;100022.47;4991133;28;20034;-52
2023/03/26 07:46:22;;;;;;;2.38;0.90;;;;;;;10.65;nan;100020.38;4993483;28;20072;-51
2023/03/26 07:48:50;;;;;;;6.50;1.63;;;;;;;10.65;nan;100016.88;4992821;28;20608;-49
2023/03/26 07:51:17;;;;;;;1.92;0.77;;;;;;;10.73;nan;100013.72;5003925;28;20583;-50
2023/03/26 07:53:43;;;;;;;3.95;0.98;;;;;;;10.81;nan;100014.03;4998789;28;20407;-49
2023/03/26 07:56:36;;;;;;;2.50;0.93;;;;;;;10.89;nan;100011.69;5001814;28;20121;-50
2023/03/26 07:59:28;;;;;;;3.47;0.90;;;;;;;10.89;nan;100019.59;5003726;28;20095;-55
2023/03/26 08:02:03;;;;;;;0.73;0.40;;;;;;;11.00;nan;100015.34;4999507;28;20443;-51
2023/03/26 08:04:47;;;;;;;4.35;1.13;;;;;;;11.10;nan;100026.91;4996910;28;20042;-50
2023/03/26 08:07:41;;;;;;;4.50;1.25;;;;;;;11.10;nan;100030.38;5002321;28;20519;-49
2023/03/26 08:10:20;;;;;;;2.50;0.60;;;;;;;11.09;nan;100035.75;4997325;28;20027;-49
2023/03/26 08:13:23;;;;;;;3.75;0.80;;;;;;;11.04;nan;100022.06;5000259;28;20030;-51
2023/03/26 08:15:59;;;;;;;2.70;0.70;;;;;;;11.03;nan;100029.16;4999839;28;20092;-50
2023/03/26 08:18:43;;;;;;;3.20;2.25;;;;;;;11.10;nan;100033.00;5002153;28;20030;-48
2023/03/26 08:21:20;;;;;;;1.70;0.50;;;;;;;11.01;nan;100032.81;5002641;28;20084;-53
2023/03/26 08:24:09;;;;;;;3.60;0.68;;;;;;;11.06;nan;100028.91;5005273;28;20034;-52
2023/03/26 08:26:44;;;;;;;2.67;0.60;;;;;;;11.18;nan;100035.09;5005012;28;20034;-52
2023/03/26 08:29:34;;;;;;;1.15;0.65;;;;;;;11.19;nan;100036.78;5002312;28;20115;-48
2023/03/26 08:32:02;;;;;;;1.95;0.47;;;;;;;11.08;nan;100036.72;5000633;28;20037;-50
2023/03/26 08:34:28;;;;;;;1.92;0.73;;;;;;;11.00;nan;100044.28;5002149;28;20451;-50
2023/03/26 08:36:53;;;;;;;1.30;0.50;;;;;;;10.97;nan;100038.28;5002443;28;20050;-50
2023/03/26 08:39:21;;;;;;;2.95;0.77;;;;;;;10.95;nan;100040.22;5005999;28;20725;-52
2023/03/26 08:42:12;;;;;;;2.20;0.68;;;;;;;10.96;nan;100047.16;5006045;28;20361;-48
2023/03/26 08:44:39;;;;;;;1.63;0.52;;;;;;;10.97;nan;100043.56;5002653;28;20521;-52
2023/03/26 08:47:38;;;;;;;0.98;0.57;;;;;;;10.94;nan;100040.31;4999430;28;20120;-49
2023/03/26 08:50:39;;;;;;;1.58;0.50;;;;;;;10.96;nan;100046.31;5004848;28;20026;-52
2023/03/26 08:53:31;;;;;;;2.80;0.80;;;;;;;11.02;nan;100056.41;4980238;28;21056;-51
2023/03/26 08:56:18;;;;;;;5.22;0.70;;;;;;;11.03;nan;100051.97;5007590;28;20029;-52
2023/03/26 08:58:49;;;;;;;2.72;1.00;;;;;;;11.00;nan;100054.81;5005220;28;20030;-53
2023/03/26 09:01:44;;;;;;;3.83;0.83;;;;;;;11.02;nan;100051.16;4991894;28;20025;-51
2023/03/26 09:04:34;;;;;;;2.33;0.50;;;;;;;11.03;nan;100049.34;4999981;28;20061;-50
2023/03/26 09:07:27;;;;;;;4.10;0.70;;;;;;;11.08;nan;100045.44;5006789;28;20025;-52
2023/03/26 09:10:11;;;;;;;2.42;0.70;;;;;;;11.18;nan;100047.44;5008368;28;20053;-51
2023/03/26 09:13:17;;;;;;;2.42;0.88;;;;;;;11.18;nan;100045.63;5005836;28;20061;-50
2023/03/26 09:15:56;;;;;;;3.03;0.73;;;;;;;11.21;nan;100045.41;5004930;28;20064;-52
2023/03/26 09:18:56;;;;;;;4.38;1.33;;;;;;;11.27;nan;100041.50;4996623;28;20029;-51
2023/03/26 09:21:30;;;;;;;6.03;1.10;;;;;;;11.24;nan;100047.84;5002396;28;20022;-50
2023/03/26 09:24:27;;;;;;;2.92;1.00;;;;;;;11.21;nan;100044.56;5001428;28;20030;-49
2023/03/26 09:27:05;;;;;;;7.68;1.65;;;;;;;11.16;nan;100041.44;5005349;28;20106;-49
2023/03/26 09:29:48;;;;;;;2.83;0.93;;;;;;;11.08;nan;100039.34;5003177;28;20483;-51
2023/03/26 09:32:52;;;;;;;2.22;0.73;;;;;;;11.11;nan;100044.41;5001791;28;20112;-50
2023/03/26 09:36:03;;;;;;;4.78;0.85;;;;;;;11.18;nan;100031.63;5001518;28;20092;-52
2023/03/26 09:38:49;;;;;;;2.38;0.65;;;;;;;11.28;nan;100036.09;4994226;28;20076;-49
2023/03/26 09:41:28;;;;;;;5.40;1.23;;;;;;;11.38;nan;100035.47;5000373;28;20037;-50
2023/03/26 09:44:35;;;;;;;5.65;1.20;;;;;;;11.39;nan;100037.13;4995934;28;20056;-51
2023/03/26 09:47:39;;;;;;;7.68;1.13;;;;;;;11.34;nan;100034.00;5003843;28;20157;-51
2023/03/26 09:50:51;;;;;;;2.45;0.75;;;;;;;11.42;nan;100036.91;5007772;28;20057;-52
2023/03/26 09:53:47;;;;;;;6.03;1.10;;;;;;;11.58;nan;100026.09;5006843;28;20072;-51
2023/03/26 09:56:50;;;;;;;4.47;1.15;;;;;;;11.71;nan;100052.41;4999574;28;21608;-50
2023/03/26 09:59:46;;;;;;;3.03;0.70;;;;;;;11.67;nan;100029.84;5007973;28;20121;-51
2023/03/26 10:03:05;;;;;;;3.85;1.30;;;;;;;11.69;nan;100027.94;5000275;28;20033;-51
2023/03/26 10:05:40;;;;;;;2.00;0.65;;;;;;;11.61;nan;100019.75;4964853;28;20027;-50
2023/03/26 10:08:19;;;;;;;1.45;0.70;;;;;;;11.64;nan;100024.81;5000723;28;20065;-51
2023/03/26 10:11:04;;;;;;;3.38;1.05;;;;;;;11.65;nan;100026.47;5004110;28;20038;-50
2023/03/26 10:13:50;;;;;;;8.80;1.42;;;;;;;11.68;nan;100021.81;5007173;28;20030;-50
2023/03/26 10:16:34;;;;;;;2.92;0.90;;;;;;;11.83;nan;100025.13;5005865;28;20022;-51
2023/03/26 10:19:28;;;;;;;6.60;0.93;;;;;;;11.98;nan;100038.13;4995022;28;20018;-50
2023/03/26 10:22:13;;;;;;;3.88;0.88;;;;;;;11.99;nan;100018.75;5005128;28;20100;-50
2023/03/26 10:25:00;;;;;;;4.88;0.80;;;;;;;12.03;nan;100017.53;5005458;28;20034;-50
2023/03/26 10:27:47;;;;;;;2.65;0.80;;;;;;;12.08;nan;100012.75;5002219;28;20018;-50
2023/03/26 10:30:36;;;;;;;2.90;0.68;;;;;;;12.25;nan;100011.47;5006668;28;20539;-50
2023/03/26 10:33:14;;;;;;;4.30;0.80;;;;;;;12.32;nan;100011.84;5007381;28;20476;-50
2023/03/26 10:36:11;;;;;;;4.95;0.63;;;;;;;12.13;nan;100029.06;4999512;28;20388;-50
2023/03/26 10:39:19;;;;;;;2.40;0.80;;;;;;;12.07;nan;100028.72;5000853;28;20365;-52
2023/03/26 10:42:22;;;;;;;2.85;1.60;;;;;;;11.96;nan;100011.03;5005752;28;20119;-51
2023/03/26 10:45:08;;;;;;;4.57;1.80;;;;;;;11.84;nan;100033.84;5001789;28;20045;-50
2023/03/26 10:47:51;;;;;;;2.28;0.60;;;;;;;11.74;nan;100038.97;4998492;28;20496;-50
2023/03/26 10:50:26;;;;;;;2.40;1.17;;;;;;;11.68;nan;100026.25;4997387;28;20030;-50
2023/03/26 10:52:57;;;;;;;4.57;0.80;;;;;;;11.79;nan;100028.94;5007635;28;20516;-50
2023/03/26 10:55:35;;;;;;;6.68;1.17;;;;;;;11.94;nan;100031.38;4999515;28;20030;-50
2023/03/26 10:58:25;;;;;;;4.65;1.70;;;;;;;12.06;nan;100038.41;5004250;28;20026;-51
2023/03/26 11:00:56;;;;;;;5.05;1.17;;;;;;;12.13;nan;100034.34;5005843;28;20038;-51
2023/03/26 11:03:42;;;;;;;5.95;0.90;;;;;;;12.22;nan;100026.69;5005865;28;20036;-51
2023/03/26 11:06:37;;;;;;;5.07;0.95;;;;;;;12.29;nan;100031.38;5000751;28;20485;-52
2023/03/26 11:09:12;;;;;;;5.35;0.98;;;;;;;12.42;nan;100031.28;5004739;28;20864;-54
2023/03/26 11:11:46;;;;;;;4.78;1.50;;;;;;;12.61;nan;100029.88;4998438;28;20034;-51
2023/03/26 11:14:20;;;;;;;4.93;0.90;;;;;;;12.74;nan;100035.88;5001044;28;20019;-51
2023/03/26 11:16:52;;;;;;;6.35;1.55;;;;;;;12.83;nan;100028.19;5006563;28;20046;-51
2023/03/26 11:19:38;;;;;;;8.05;2.30;;;;;;;12.81;nan;100031.78;5000141;28;20030;-52
2023/03/26 11:22:22;;;;;;;3.63;1.00;;;;;;;12.70;nan;100038.88;5005514;28;20076;-53
2023/03/26 11:25:22;;;;;;;2.90;0.80;;;;;;;12.62;nan;100042.13;5005152;28;20029;-53
2023/03/26 11:28:04;;;;;;;4.40;0.95;;;;;;;12.48;nan;100035.25;5006780;28;20030;-51
2023/03/26 11:30:42;;;;;;;4.07;1.35;;;;;;;12.38;nan;100035.09;4988555;28;20053;-55
2023/03/26 11:33:12;;;;;;;2.53;0.70;;;;;;;12.35;nan;100040.63;4999228;28;20098;-52
2023/03/26 11:35:42;;;;;;;2.67;0.85;;;;;;;12.37;nan;100028.16;5001682;28;20082;-54
2023/03/26 11:38:25;;;;;;;6.53;1.50;;;;;;;12.42;nan;100027.78;5005665;28;20022;-51
2023/03/26 11:40:55;;;;;;;3.55;1.08;;;;;;;12.56;nan;100032.84;5001054;28;20112;-54
2023/03/26 11:43:31;;;;;;;5.82;0.95;;;;;;;12.73;nan;100023.63;5002675;28;20389;-51
2023/03/26 11:46:00;;;;;;;5.20;1.15;;;;;;;12.83;nan;100030.81;4999494;28;20105;-51
2023/03/26 11:48:47;;;;;;;6.80;1.00;;;;;;;12.81;nan;100029.13;5002053;28;20073;-53
2023/03/26 11:51:32;;;;;;;3.20;1.00;;;;;;;12.92;nan;100027.47;5003188;28;20193;-52
2023/03/26 11:54:02;;;;;;;6.70;1.10;;;;;;;13.03;nan;100029.22;5002221;28;20022;-50
2023/03/26 11:56:27;;;;;;;2.47;0.82;;;;;;;13.09;nan;100034.88;5009947;28;20522;-51
2023/03/26 11:59:08;;;;;;;4.47;1.35;;;;;;;13.07;nan;100020.13;5007745;28;20053;-55
2023/03/26 12:01:51;;;;;;;3.38;0.80;;;;;;;13.04;nan;100025.63;5001180;28;20025;-51
2023/03/26 12:04:26;;;;;;;;;;;;;;;12.93;nan;100022.06;5008225;28;20043;-54
2023/03/26 12:07:05;;;;;;;2.83;0.88;;;;;;;12.76;nan;100018.13;5000255;28;19925;-51
2023/03/26 12:09:31;;;;;;;4.18;0.70;;;;;;;12.81;nan;100007.19;4986243;28;20662;-51
2023/03/26 12:12:03;;;;;;;5.88;0.95;;;;;;;12.86;nan;100017.38;4993087;28;20060;-51
2023/03/26 12:14:32;;;;;;;9.00;1.38;;;;;;;12.88;nan;100012.81;4999805;28;20508;-52
2023/03/26 12:16:59;;;;;;;7.68;1.40;;;;;;;12.98;nan;100008.47;4994185;28;20049;-50
2023/03/26 12:19:27;;;;;;;3.97;1.10;;;;;;;13.08;nan;100006.78;4994425;28;20044;-50
2023/03/26 12:21:53;;;;;;;4.53;0.70;;;;;;;13.08;nan;100019.16;4995167;28;20075;-52